Sciota, Illinois
Current Conditions -  °F | °C
As of 1:55 PM on Friday 24 Oct 2014 (Local Time) from KMQB Reporting Station
Clear Clear  
Wind Chill: 65°   Ceiling: Unl
Heat Index: 65°   Visibility: 10mi
Dew Point: 56°   Wind: 9mph
Humidity: 74%   Direction: 180°S
Pressure: 30.04"   Gusts: NA
Location:  40.56°N, 90.75°W
Report Text: KMQB 241855Z AUTO 18008KT 10SM CLR 18/14 A3004 RMK AO2 T01830135
Loading
Personal Weather Stations






























Interactive Weather Map
Tropical Storm Tracking
New forecast layout! Learn more

10-Day Weather Forecast

Advertisements
Track Severe Weather on mobile